Time;durP1;ratioP1;P1;durP2;ratioP2;P2;SDS_P1;SDS_P2;PMS_P1;PMS_P2;Temp;Humidity;BMP_temperature;BMP_pressure;BME280_temperature;BME280_humidity;BME280_pressure;Samples;Min_cycle;Max_cycle;Signal;HPM_P1;HPM_P2
2023/09/02 00:00:06;;;;;;;12.07;9.75;;;15.50;99.90;;;;;;5049074;28;20069;-52
2023/09/02 00:02:31;;;;;;;13.10;10.07;;;15.50;99.90;;;;;;5041503;28;20047;-54
2023/09/02 00:04:57;;;;;;;8.43;6.85;;;15.50;99.90;;;;;;5051275;28;20528;-54
2023/09/02 00:07:23;;;;;;;8.90;8.20;;;15.50;99.90;;;;;;5050200;28;20111;-56
2023/09/02 00:09:48;;;;;;;10.30;8.52;;;15.50;99.90;;;;;;5050639;28;20120;-55
2023/09/02 00:12:14;;;;;;;15.32;12.93;;;15.50;99.90;;;;;;5050774;28;20041;-51
2023/09/02 00:14:39;;;;;;;15.00;13.30;;;15.50;99.90;;;;;;5050981;28;20052;-52
2023/09/02 00:17:05;;;;;;;19.25;13.52;;;15.50;99.90;;;;;;5050949;28;20072;-52
2023/09/02 00:19:30;;;;;;;10.73;9.63;;;15.50;99.90;;;;;;5050464;28;20106;-54
2023/09/02 00:21:56;;;;;;;11.60;10.50;;;15.50;99.90;;;;;;5021913;28;20120;-53
2023/09/02 00:24:22;;;;;;;13.95;12.52;;;15.50;99.90;;;;;;5036699;28;20087;-54
2023/09/02 00:26:47;;;;;;;11.13;10.18;;;15.50;99.90;;;;;;5043033;28;20037;-55
2023/09/02 00:29:13;;;;;;;11.32;10.32;;;15.50;99.90;;;;;;5050208;28;20044;-53
2023/09/02 00:31:38;;;;;;;14.25;12.88;;;15.50;99.90;;;;;;5050532;28;20041;-51
2023/09/02 00:34:04;;;;;;;12.80;11.30;;;15.50;99.90;;;;;;5051964;28;20040;-52
2023/09/02 00:36:30;;;;;;;14.52;12.82;;;15.40;99.90;;;;;;5048753;28;20476;-54
2023/09/02 00:38:59;;;;;;;16.13;14.52;;;15.40;99.90;;;;;;5032938;28;20037;-53
2023/09/02 00:41:39;;;;;;;20.77;15.93;;;15.40;99.90;;;;;;5050439;28;20029;-55
2023/09/02 00:44:05;;;;;;;21.67;16.77;;;15.40;99.90;;;;;;5051779;28;20324;-53
2023/09/02 00:46:31;;;;;;;20.92;15.93;;;15.40;99.90;;;;;;5049904;28;20050;-53
2023/09/02 00:48:57;;;;;;;10.63;8.50;;;15.40;99.90;;;;;;5050822;28;20043;-54
2023/09/02 00:51:23;;;;;;;13.52;10.57;;;15.40;99.90;;;;;;5049733;28;20068;-53
2023/09/02 00:53:48;;;;;;;10.82;9.93;;;15.40;99.90;;;;;;5051235;28;20046;-53
2023/09/02 00:56:15;;;;;;;10.30;9.30;;;15.40;99.90;;;;;;5047656;28;20064;-53
2023/09/02 00:58:41;;;;;;;11.82;10.65;;;15.30;99.90;;;;;;5043005;28;20482;-51
2023/09/02 01:01:07;;;;;;;11.30;10.27;;;15.30;99.90;;;;;;5040139;28;20118;-54
2023/09/02 01:03:35;;;;;;;11.95;10.77;;;15.30;99.90;;;;;;5039274;28;20071;-52
2023/09/02 01:06:03;;;;;;;21.70;14.18;;;15.30;99.90;;;;;;5041968;28;20037;-51
2023/09/02 01:08:30;;;;;;;16.90;14.70;;;15.30;99.90;;;;;;5047116;28;20055;-55
2023/09/02 01:10:59;;;;;;;16.52;14.95;;;15.30;99.90;;;;;;5049779;28;20040;-55
2023/09/02 01:13:27;;;;;;;17.90;16.00;;;15.30;99.90;;;;;;5044479;28;20036;-53
2023/09/02 01:15:55;;;;;;;18.83;16.75;;;15.40;99.90;;;;;;5050162;28;20037;-54
2023/09/02 01:18:22;;;;;;;18.58;16.52;;;15.40;99.90;;;;;;5045338;28;20044;-51
2023/09/02 01:21:15;;;;;;;19.88;17.55;;;15.40;99.90;;;;;;5032824;28;20036;-54
2023/09/02 01:23:45;;;;;;;18.58;16.60;;;15.40;99.90;;;;;;5048635;28;20041;-51
2023/09/02 01:26:29;;;;;;;19.73;16.60;;;15.40;99.90;;;;;;5048553;28;20576;-53
2023/09/02 01:29:00;;;;;;;19.90;16.83;;;15.40;99.90;;;;;;5046689;28;20036;-54
2023/09/02 01:31:29;;;;;;;18.77;16.92;;;15.40;99.90;;;;;;5050273;28;20037;-54
2023/09/02 01:33:55;;;;;;;21.70;18.58;;;15.40;99.90;;;;;;5050300;28;20049;-56
2023/09/02 01:36:22;;;;;;;19.90;17.90;;;15.40;99.90;;;;;;5029773;28;20040;-53
2023/09/02 01:38:51;;;;;;;21.75;18.48;;;15.40;99.90;;;;;;5026488;28;20445;-55
2023/09/02 01:41:17;;;;;;;22.08;19.60;;;15.40;99.90;;;;;;5047964;28;20033;-51
2023/09/02 01:43:45;;;;;;;23.48;20.98;;;15.40;99.90;;;;;;5047570;28;20246;-51
2023/09/02 01:46:11;;;;;;;26.15;22.95;;;15.40;99.90;;;;;;5048876;28;20032;-54
2023/09/02 01:48:37;;;;;;;;;;;15.50;99.90;;;;;;5049077;28;20066;-53
2023/09/02 01:51:03;;;;;;;24.67;21.15;;;15.50;99.90;;;;;;5048657;28;20432;-52
2023/09/02 01:53:29;;;;;;;23.50;21.02;;;15.50;99.90;;;;;;5049404;28;20045;-54
2023/09/02 01:55:57;;;;;;;25.92;22.85;;;15.50;99.90;;;;;;5050014;28;20043;-52
2023/09/02 01:58:22;;;;;;;25.73;23.15;;;15.50;99.90;;;;;;5049845;28;20064;-54
2023/09/02 02:00:48;;;;;;;30.77;23.98;;;15.50;99.90;;;;;;5048900;28;20506;-53
2023/09/02 02:03:20;;;;;;;30.02;24.25;;;15.50;99.90;;;;;;5045064;28;20264;-51
2023/09/02 02:05:53;;;;;;;30.02;23.38;;;15.50;99.90;;;;;;5049980;28;20041;-53
2023/09/02 02:08:56;;;;;;;27.50;23.70;;;15.60;99.90;;;;;;5032049;28;20136;-55
2023/09/02 02:11:24;;;;;;;32.03;25.27;;;15.60;99.90;;;;;;5047894;28;20049;-51
2023/09/02 02:13:49;;;;;;;32.30;26.30;;;15.50;99.90;;;;;;5049210;28;20119;-52
2023/09/02 02:16:15;;;;;;;37.88;27.85;;;15.60;99.90;;;;;;5049388;28;20159;-51
2023/09/02 02:18:41;;;;;;;29.70;25.25;;;15.60;99.90;;;;;;5049198;28;20037;-54
2023/09/02 02:21:07;;;;;;;38.08;29.38;;;15.60;99.90;;;;;;5048967;28;20037;-56
2023/09/02 02:23:33;;;;;;;34.10;27.20;;;15.60;99.90;;;;;;5048999;28;20044;-54
2023/09/02 02:26:07;;;;;;;29.85;26.85;;;15.60;99.90;;;;;;5049706;28;20051;-53
2023/09/02 02:28:33;;;;;;;37.50;27.80;;;15.60;99.90;;;;;;5049309;28;20490;-53
2023/09/02 02:30:59;;;;;;;36.13;28.38;;;15.60;99.90;;;;;;5049470;28;20041;-53
2023/09/02 02:33:25;;;;;;;;;;;15.60;99.90;;;;;;5049790;28;20041;-53
2023/09/02 02:35:51;;;;;;;33.00;27.77;;;15.60;99.90;;;;;;5049768;28;20008;-52
2023/09/02 02:38:16;;;;;;;33.45;28.95;;;15.60;99.90;;;;;;5048712;28;20116;-51
2023/09/02 02:40:42;;;;;;;38.40;30.15;;;15.70;99.90;;;;;;5049490;28;20117;-54
2023/09/02 02:43:08;;;;;;;35.53;28.80;;;15.70;99.90;;;;;;5049447;28;20524;-52
2023/09/02 02:45:34;;;;;;;32.92;28.98;;;15.60;99.90;;;;;;5049004;28;20037;-53
2023/09/02 02:48:00;;;;;;;31.75;28.35;;;15.70;99.90;;;;;;5048263;28;20044;-51
2023/09/02 02:50:25;;;;;;;32.38;28.17;;;15.60;99.90;;;;;;5049177;28;20387;-54
2023/09/02 02:52:51;;;;;;;31.73;28.30;;;15.60;99.90;;;;;;5048456;28;20035;-55
2023/09/02 02:55:17;;;;;;;31.83;28.10;;;15.70;99.90;;;;;;5042955;28;20041;-53
2023/09/02 02:57:44;;;;;;;32.53;27.52;;;15.70;99.90;;;;;;5035008;28;20320;-51
2023/09/02 03:00:10;;;;;;;33.70;27.17;;;15.60;99.90;;;;;;5044242;28;20037;-54
2023/09/02 03:02:36;;;;;;;31.45;28.10;;;15.70;99.90;;;;;;5032569;28;20030;-54
2023/09/02 03:05:01;;;;;;;36.13;28.48;;;15.70;99.90;;;;;;5042310;28;20041;-55
2023/09/02 03:07:27;;;;;;;;;;;15.70;99.90;;;;;;5038162;28;20442;-53
2023/09/02 03:09:53;;;;;;;37.00;29.08;;;15.70;99.90;;;;;;5048493;28;19917;-52
2023/09/02 03:12:19;;;;;;;36.50;28.98;;;15.70;99.90;;;;;;5049456;28;20052;-51
2023/09/02 03:14:48;;;;;;;33.15;27.60;;;15.60;99.90;;;;;;5048800;28;20537;-53
2023/09/02 03:17:14;;;;;;;32.88;28.02;;;15.70;99.90;;;;;;5049445;28;20409;-52
2023/09/02 03:19:44;;;;;;;36.45;29.20;;;15.70;99.90;;;;;;5051305;28;20045;-53
2023/09/02 03:22:10;;;;;;;37.92;29.08;;;15.70;99.90;;;;;;5049208;28;20972;-53
2023/09/02 03:24:35;;;;;;;39.22;30.63;;;15.70;99.90;;;;;;5048466;28;20115;-53
2023/09/02 03:27:03;;;;;;;39.08;31.00;;;15.70;99.90;;;;;;5048871;28;20167;-53
2023/09/02 03:29:29;;;;;;;36.30;29.92;;;15.70;99.90;;;;;;5048097;28;20557;-52
2023/09/02 03:31:54;;;;;;;35.17;29.92;;;15.70;99.90;;;;;;5049412;28;20163;-54
2023/09/02 03:34:20;;;;;;;39.60;30.75;;;15.70;99.90;;;;;;5048681;28;20394;-54
2023/09/02 03:36:46;;;;;;;38.47;29.80;;;15.70;99.90;;;;;;5047944;28;20044;-54
2023/09/02 03:39:11;;;;;;;40.75;32.00;;;15.70;99.90;;;;;;5048154;28;20170;-51
2023/09/02 03:41:37;;;;;;;38.42;30.73;;;15.70;99.90;;;;;;5049416;28;20029;-51
2023/09/02 03:44:03;;;;;;;34.45;30.17;;;15.80;99.90;;;;;;5048511;28;20122;-54
2023/09/02 03:46:29;;;;;;;38.03;30.83;;;15.80;99.90;;;;;;5048652;28;20037;-53
2023/09/02 03:48:55;;;;;;;38.33;32.10;;;15.80;99.90;;;;;;5048242;28;20033;-53
2023/09/02 03:51:21;;;;;;;34.15;30.15;;;15.80;99.90;;;;;;5048142;28;20048;-51
2023/09/02 03:53:46;;;;;;;33.33;28.30;;;15.80;99.90;;;;;;5048387;28;20047;-52
2023/09/02 03:56:12;;;;;;;36.75;29.58;;;15.80;99.90;;;;;;5048323;28;20037;-54
2023/09/02 03:58:38;;;;;;;32.30;27.05;;;15.80;99.90;;;;;;5049121;28;20052;-53
2023/09/02 04:01:04;;;;;;;32.08;27.65;;;15.70;99.90;;;;;;5052293;28;20091;-51
2023/09/02 04:03:35;;;;;;;32.03;28.63;;;15.80;99.90;;;;;;5052216;28;20494;-56
2023/09/02 04:06:01;;;;;;;32.05;26.80;;;15.80;99.90;;;;;;5024449;28;20056;-53
2023/09/02 04:08:26;;;;;;;29.67;26.33;;;15.70;99.90;;;;;;5052571;28;20185;-54
2023/09/02 04:10:56;;;;;;;31.00;27.67;;;15.70;99.90;;;;;;5051684;28;20128;-51
2023/09/02 04:13:26;;;;;;;32.08;28.20;;;15.70;99.90;;;;;;5052356;28;20045;-51
2023/09/02 04:16:00;;;;;;;36.05;28.65;;;15.70;99.90;;;;;;5051526;28;20037;-54
2023/09/02 04:18:26;;;;;;;40.92;31.50;;;15.70;99.90;;;;;;5051553;28;20040;-52
2023/09/02 04:20:52;;;;;;;41.13;31.48;;;15.70;99.90;;;;;;5051305;28;20040;-52
2023/09/02 04:23:18;;;;;;;;;;;15.70;99.90;;;;;;5052443;28;20029;-51
2023/09/02 04:25:51;;;;;;;38.83;30.90;;;15.70;99.90;;;;;;5051227;28;19916;-52
2023/09/02 04:28:18;;;;;;;32.67;28.60;;;15.70;99.90;;;;;;5051742;28;20048;-52
2023/09/02 04:30:44;;;;;;;35.65;30.50;;;15.70;99.90;;;;;;5050854;28;20041;-55
2023/09/02 04:33:10;;;;;;;36.78;31.98;;;15.70;99.90;;;;;;5051964;28;20513;-53
2023/09/02 04:35:37;;;;;;;33.83;29.05;;;15.70;99.90;;;;;;5051102;28;20041;-51
2023/09/02 04:38:04;;;;;;;37.33;31.65;;;15.80;99.90;;;;;;5051474;28;20044;-51
2023/09/02 04:40:29;;;;;;;;;;;15.70;99.90;;;;;;5051477;28;20402;-51
2023/09/02 04:42:56;;;;;;;37.05;31.13;;;15.70;99.90;;;;;;5033823;28;19923;-54
2023/09/02 04:45:22;;;;;;;34.88;31.10;;;15.70;99.90;;;;;;5032613;28;20045;-53
2023/09/02 04:47:49;;;;;;;35.80;30.95;;;15.70;99.90;;;;;;5051951;28;20115;-53
2023/09/02 04:50:14;;;;;;;36.80;32.80;;;15.70;99.90;;;;;;5051024;28;20041;-52
2023/09/02 04:52:41;;;;;;;39.13;31.50;;;15.70;99.90;;;;;;5051665;28;20043;-54
2023/09/02 04:55:07;;;;;;;36.78;29.83;;;15.70;99.90;;;;;;5050774;28;20094;-53
2023/09/02 04:57:33;;;;;;;41.58;31.05;;;15.70;99.90;;;;;;5051786;28;20037;-53
2023/09/02 04:59:59;;;;;;;42.85;33.95;;;15.70;99.90;;;;;;5050290;28;20182;-51
2023/09/02 05:02:24;;;;;;;47.28;34.80;;;15.60;99.90;;;;;;5051627;28;20044;-52
2023/09/02 05:04:52;;;;;;;50.35;36.63;;;15.70;99.90;;;;;;5050498;28;20048;-51
2023/09/02 05:07:17;;;;;;;47.38;34.90;;;15.60;99.90;;;;;;5046840;28;20247;-53
2023/09/02 05:09:43;;;;;;;46.40;36.28;;;15.70;99.90;;;;;;5041330;28;20525;-53
2023/09/02 05:12:08;;;;;;;52.47;37.30;;;15.60;99.90;;;;;;5047533;28;20037;-52
2023/09/02 05:14:34;;;;;;;47.88;34.33;;;15.70;99.90;;;;;;5043384;28;20513;-56
2023/09/02 05:17:00;;;;;;;51.85;37.75;;;15.60;99.90;;;;;;5049178;28;20037;-51
2023/09/02 05:19:25;;;;;;;51.22;36.17;;;15.60;99.90;;;;;;5050617;28;20029;-51
2023/09/02 05:21:51;;;;;;;54.38;38.70;;;15.60;99.90;;;;;;5050926;28;20033;-51
2023/09/02 05:24:17;;;;;;;55.05;39.08;;;15.60;99.90;;;;;;5051138;28;20063;-53
2023/09/02 05:26:42;;;;;;;51.05;40.70;;;15.60;99.90;;;;;;5050375;28;20417;-51
2023/09/02 05:29:08;;;;;;;55.63;40.67;;;15.70;99.90;;;;;;5049497;28;20048;-54
2023/09/02 05:31:36;;;;;;;58.42;40.40;;;15.60;99.90;;;;;;5050757;28;20428;-52
2023/09/02 05:34:02;;;;;;;58.28;39.50;;;15.70;99.90;;;;;;5051048;28;20037;-54
2023/09/02 05:36:27;;;;;;;58.85;37.65;;;15.60;99.90;;;;;;5049756;28;20048;-54
2023/09/02 05:38:53;;;;;;;48.85;36.95;;;15.70;99.90;;;;;;5050752;28;20045;-53
2023/09/02 05:41:19;;;;;;;48.45;36.53;;;15.60;99.90;;;;;;5049880;28;20206;-52
2023/09/02 05:43:44;;;;;;;49.33;36.30;;;15.60;99.90;;;;;;5050860;28;20041;-51
2023/09/02 05:46:10;;;;;;;51.25;37.65;;;15.60;99.90;;;;;;5050311;28;20513;-54
2023/09/02 05:48:35;;;;;;;47.88;36.33;;;15.60;99.90;;;;;;5050495;28;20071;-51
2023/09/02 05:51:05;;;;;;;47.78;35.35;;;15.60;99.90;;;;;;5049993;28;20115;-52
2023/09/02 05:53:30;;;;;;;45.22;35.28;;;15.70;99.90;;;;;;5050669;28;20497;-55
2023/09/02 05:55:56;;;;;;;53.75;36.65;;;15.70;99.90;;;;;;5049919;28;20036;-55
2023/09/02 05:58:24;;;;;;;51.13;34.45;;;15.70;99.90;;;;;;5050043;28;20128;-54
2023/09/02 06:00:49;;;;;;;47.88;33.00;;;15.70;99.90;;;;;;5049807;28;20032;-52
2023/09/02 06:03:15;;;;;;;45.08;32.88;;;15.70;99.90;;;;;;5050362;28;20547;-54
2023/09/02 06:05:40;;;;;;;47.65;32.17;;;15.70;99.90;;;;;;5043286;28;20076;-55
2023/09/02 06:08:06;;;;;;;43.58;33.15;;;15.70;99.90;;;;;;5050103;28;20044;-51
2023/09/02 06:10:32;;;;;;;48.20;32.95;;;15.70;99.90;;;;;;5044986;28;20133;-53
2023/09/02 06:12:57;;;;;;;45.33;32.20;;;15.70;99.90;;;;;;5049708;28;20508;-53
2023/09/02 06:15:23;;;;;;;49.97;32.00;;;15.70;99.90;;;;;;5049773;28;20037;-52
2023/09/02 06:17:48;;;;;;;44.45;33.72;;;15.70;99.90;;;;;;5049453;28;20024;-53
2023/09/02 06:20:16;;;;;;;46.47;32.85;;;15.70;99.90;;;;;;5049334;28;20048;-52
2023/09/02 06:22:42;;;;;;;46.30;32.33;;;15.70;99.90;;;;;;5050108;28;20596;-54
2023/09/02 06:25:08;;;;;;;;;;;15.70;99.90;;;;;;5049866;28;20068;-51
2023/09/02 06:27:33;;;;;;;41.95;31.13;;;15.80;99.90;;;;;;5049462;28;19948;-52
2023/09/02 06:29:59;;;;;;;45.22;30.65;;;15.80;99.90;;;;;;5049014;28;20044;-54
2023/09/02 06:32:24;;;;;;;49.83;31.60;;;15.80;99.90;;;;;;5047964;28;20398;-51
2023/09/02 06:34:53;;;;;;;39.95;29.98;;;15.80;99.90;;;;;;5050931;28;20096;-52
2023/09/02 06:37:19;;;;;;;37.92;29.70;;;15.80;99.90;;;;;;5040043;28;20037;-51
2023/09/02 06:39:44;;;;;;;44.67;30.35;;;15.90;99.90;;;;;;5039690;28;20095;-51
2023/09/02 06:42:10;;;;;;;42.17;30.40;;;15.90;99.90;;;;;;5047921;28;20040;-51
2023/09/02 06:44:35;;;;;;;40.72;29.27;;;15.90;99.90;;;;;;5045491;28;20487;-54
2023/09/02 06:47:03;;;;;;;39.10;31.20;;;15.90;99.90;;;;;;5045043;28;20041;-51
2023/09/02 06:49:32;;;;;;;34.88;26.08;;;16.00;99.90;;;;;;5048947;28;20033;-51
2023/09/02 06:51:57;;;;;;;38.25;29.90;;;16.00;99.90;;;;;;5040330;28;20103;-55
2023/09/02 06:54:23;;;;;;;47.00;30.38;;;16.00;99.90;;;;;;5049710;28;20120;-53
2023/09/02 06:56:50;;;;;;;48.47;31.63;;;16.00;99.90;;;;;;5048011;28;20033;-51
2023/09/02 06:59:16;;;;;;;46.67;31.30;;;16.00;99.90;;;;;;5047947;28;20033;-53
2023/09/02 07:01:41;;;;;;;41.45;29.95;;;15.90;99.90;;;;;;5044672;28;20094;-54
2023/09/02 07:04:07;;;;;;;39.67;30.73;;;16.00;99.90;;;;;;5042549;28;20037;-51
2023/09/02 07:06:32;;;;;;;43.78;31.17;;;16.10;99.90;;;;;;5047171;28;20037;-51
2023/09/02 07:08:59;;;;;;;41.53;29.52;;;16.10;99.90;;;;;;5045837;28;20061;-55
2023/09/02 07:11:24;;;;;;;40.28;31.85;;;16.10;99.90;;;;;;5031063;28;20064;-54
2023/09/02 07:13:50;;;;;;;43.15;32.03;;;16.10;99.90;;;;;;5046017;28;20514;-53
2023/09/02 07:16:16;;;;;;;43.47;32.50;;;16.10;99.90;;;;;;5048857;28;20060;-53
2023/09/02 07:18:41;;;;;;;39.55;30.90;;;16.10;99.90;;;;;;5045541;28;20550;-51
2023/09/02 07:21:07;;;;;;;37.97;30.23;;;16.10;99.90;;;;;;5048777;28;20486;-54
2023/09/02 07:23:33;;;;;;;41.72;32.38;;;16.10;99.90;;;;;;5049003;28;20049;-53
2023/09/02 07:26:05;;;;;;;;;;;16.10;99.90;;;;;;5048957;28;20490;-54
2023/09/02 07:28:31;;;;;;;42.47;31.70;;;16.10;99.90;;;;;;5046971;28;19924;-53
2023/09/02 07:30:58;;;;;;;;;;;16.10;99.90;;;;;;5049008;28;20040;-52
2023/09/02 07:33:24;;;;;;;42.05;31.88;;;16.10;99.90;;;;;;5049001;28;19923;-54
2023/09/02 07:35:50;;;;;;;;;;;16.10;99.90;;;;;;5052702;28;20045;-56
2023/09/02 07:38:15;;;;;;;44.78;30.52;;;16.10;99.90;;;;;;5051310;28;19917;-52
2023/09/02 07:40:41;;;;;;;43.88;33.10;;;16.10;99.90;;;;;;5052328;28;20386;-52
2023/09/02 07:43:07;;;;;;;53.70;33.13;;;16.20;99.90;;;;;;5034228;28;20068;-51
2023/09/02 07:45:32;;;;;;;47.67;33.25;;;16.10;99.90;;;;;;5052111;28;20047;-53
2023/09/02 07:47:58;;;;;;;49.63;33.13;;;16.20;99.90;;;;;;5040578;28;20494;-56
2023/09/02 07:50:23;;;;;;;43.72;32.45;;;16.20;99.90;;;;;;5041913;28;20064;-52
2023/09/02 07:52:49;;;;;;;46.95;34.10;;;16.20;99.90;;;;;;5057489;28;20040;-53
2023/09/02 07:55:15;;;;;;;53.65;35.40;;;16.20;99.90;;;;;;5049887;28;20449;-51
2023/09/02 07:57:40;;;;;;;49.33;33.15;;;16.10;99.90;;;;;;5050028;28;20041;-55
2023/09/02 08:00:07;;;;;;;44.38;33.40;;;16.10;99.90;;;;;;5051514;28;20056;-51
2023/09/02 08:02:33;;;;;;;46.42;33.00;;;16.10;99.90;;;;;;5050679;28;20041;-52
2023/09/02 08:04:58;;;;;;;48.05;33.92;;;16.10;99.90;;;;;;5051682;28;20048;-53
2023/09/02 08:07:24;;;;;;;52.58;34.08;;;16.20;99.90;;;;;;5051174;28;20106;-54
2023/09/02 08:09:50;;;;;;;48.10;32.88;;;16.20;99.90;;;;;;5051413;28;20045;-54
2023/09/02 08:12:16;;;;;;;44.65;33.03;;;16.20;99.90;;;;;;5046669;28;20112;-54
2023/09/02 08:14:41;;;;;;;46.22;31.88;;;16.20;99.90;;;;;;5047340;28;20173;-52
2023/09/02 08:17:07;;;;;;;42.20;31.60;;;16.20;99.90;;;;;;5051036;28;20095;-54
2023/09/02 08:19:33;;;;;;;40.75;33.13;;;16.20;99.90;;;;;;5049841;28;20044;-51
2023/09/02 08:21:58;;;;;;;44.13;32.63;;;16.20;99.90;;;;;;5045905;28;20038;-54
2023/09/02 08:24:24;;;;;;;43.05;32.03;;;16.20;99.90;;;;;;5049828;28;20067;-53
2023/09/02 08:26:50;;;;;;;37.42;29.17;;;16.20;99.90;;;;;;5023327;28;20037;-53
2023/09/02 08:29:15;;;;;;;37.38;29.48;;;16.20;99.90;;;;;;5044970;28;20080;-51
2023/09/02 08:31:41;;;;;;;40.65;30.23;;;16.20;99.90;;;;;;5030659;28;20406;-52
2023/09/02 08:34:07;;;;;;;32.03;23.17;;;16.30;99.90;;;;;;5045210;28;20051;-55
2023/09/02 08:36:32;;;;;;;34.47;25.73;;;16.30;99.90;;;;;;5046022;28;20043;-53
2023/09/02 08:38:58;;;;;;;36.42;25.48;;;16.30;99.90;;;;;;5047193;28;20127;-50
2023/09/02 08:41:30;;;;;;;37.88;26.42;;;16.30;99.90;;;;;;5045612;28;20073;-52
2023/09/02 08:44:01;;;;;;;29.17;22.05;;;16.30;99.90;;;;;;5038521;28;20487;-50
2023/09/02 08:46:28;;;;;;;35.63;25.02;;;16.30;99.90;;;;;;5046479;28;20408;-56
2023/09/02 08:48:55;;;;;;;;;;;16.40;99.90;;;;;;5046539;28;20533;-52
2023/09/02 08:51:22;;;;;;;;;;;16.40;99.90;;;;;;5049032;28;19974;-50
2023/09/02 08:53:48;;;;;;;32.22;23.92;;;16.40;99.90;;;;;;5051452;28;19916;-50
2023/09/02 08:56:14;;;;;;;25.38;21.63;;;16.40;99.90;;;;;;5046764;28;20402;-50
2023/09/02 08:58:40;;;;;;;32.08;24.33;;;16.40;99.90;;;;;;5045999;28;20037;-55
2023/09/02 09:01:06;;;;;;;30.63;24.00;;;16.40;99.90;;;;;;5043934;28;20043;-52
2023/09/02 09:03:33;;;;;;;;;;;16.40;99.90;;;;;;5046340;28;20103;-52
2023/09/02 09:06:02;;;;;;;34.80;23.52;;;16.50;99.90;;;;;;5043044;28;20335;-53
2023/09/02 09:08:30;;;;;;;36.50;25.20;;;16.50;99.90;;;;;;5041617;28;20049;-54
2023/09/02 09:10:56;;;;;;;32.25;24.00;;;16.50;99.90;;;;;;5043280;28;20498;-52
2023/09/02 09:13:24;;;;;;;26.52;23.70;;;16.50;99.90;;;;;;5043450;28;20033;-53
2023/09/02 09:15:50;;;;;;;36.72;25.88;;;16.50;99.90;;;;;;5041857;28;20452;-54
2023/09/02 09:18:16;;;;;;;35.95;26.23;;;16.50;99.90;;;;;;5046135;28;20082;-54
2023/09/02 09:20:42;;;;;;;37.17;26.85;;;16.50;99.90;;;;;;5045931;28;20048;-53
2023/09/02 09:23:08;;;;;;;41.65;27.20;;;16.50;99.90;;;;;;5050852;28;20047;-55
2023/09/02 09:25:34;;;;;;;;;;;16.50;99.90;;;;;;5040521;28;20041;-56
2023/09/02 09:28:11;;;;;;;37.42;27.60;;;16.50;99.90;;;;;;5050684;28;19928;-52
2023/09/02 09:30:36;;;;;;;35.80;28.33;;;16.50;99.90;;;;;;5039214;28;20034;-55
2023/09/02 09:33:05;;;;;;;39.78;29.77;;;16.50;99.90;;;;;;5030211;28;20114;-55
2023/09/02 09:35:32;;;;;;;38.33;28.10;;;16.50;99.90;;;;;;5038579;28;20061;-52
2023/09/02 09:37:58;;;;;;;37.70;29.70;;;16.50;99.90;;;;;;5050609;28;20045;-52
2023/09/02 09:40:34;;;;;;;49.65;30.98;;;16.50;99.90;;;;;;5043547;28;20087;-55
2023/09/02 09:43:02;;;;;;;45.50;31.40;;;16.60;99.90;;;;;;5030682;28;20422;-55
2023/09/02 09:45:29;;;;;;;39.97;30.15;;;16.60;99.90;;;;;;5050515;28;20049;-54
2023/09/02 09:48:08;;;;;;;39.50;32.78;;;16.60;99.90;;;;;;5046878;28;20095;-53
2023/09/02 09:50:34;;;;;;;31.63;24.35;;;16.60;99.90;;;;;;5045625;28;20042;-55
2023/09/02 09:53:10;;;;;;;34.28;27.35;;;16.70;99.90;;;;;;5040568;28;20136;-56
2023/09/02 09:55:37;;;;;;;49.00;35.58;;;16.70;99.90;;;;;;5030578;28;20080;-56
2023/09/02 09:58:04;;;;;;;32.55;26.55;;;16.80;99.90;;;;;;5032055;28;20049;-55
2023/09/02 10:00:30;;;;;;;41.78;32.55;;;16.80;99.90;;;;;;5030782;28;20044;-55
2023/09/02 10:02:57;;;;;;;29.98;23.58;;;16.90;99.90;;;;;;5049067;28;20037;-52
2023/09/02 10:05:27;;;;;;;32.00;26.20;;;17.00;99.90;;;;;;5048157;28;20096;-55
2023/09/02 10:08:04;;;;;;;26.00;22.90;;;17.00;99.90;;;;;;5038720;28;20110;-53
2023/09/02 10:10:37;;;;;;;;;;;17.10;99.90;;;;;;5047842;28;20156;-53
2023/09/02 10:13:03;;;;;;;32.60;28.83;;;17.20;99.90;;;;;;5050295;28;19923;-55
2023/09/02 10:15:30;;;;;;;35.33;28.08;;;17.20;99.90;;;;;;5048798;28;20612;-52
2023/09/02 10:18:03;;;;;;;36.78;29.48;;;17.30;99.90;;;;;;5046803;28;20068;-56
2023/09/02 10:20:31;;;;;;;33.40;29.05;;;17.30;99.90;;;;;;5029552;28;20573;-55
2023/09/02 10:23:05;;;;;;;36.67;28.95;;;17.40;99.90;;;;;;5039082;28;20048;-55
2023/09/02 10:25:49;;;;;;;34.65;27.20;;;17.50;99.90;;;;;;5049644;28;20121;-56
2023/09/02 10:28:40;;;;;;;36.10;28.92;;;17.60;99.90;;;;;;5041220;28;20422;-56
2023/09/02 10:31:21;;;;;;;38.55;27.70;;;17.60;99.90;;;;;;5043780;28;20064;-56
2023/09/02 10:34:04;;;;;;;29.77;26.42;;;17.70;99.90;;;;;;5046374;28;20037;-56
2023/09/02 10:36:33;;;;;;;28.63;23.00;;;17.70;99.90;;;;;;5042872;28;20045;-52
2023/09/02 10:39:03;;;;;;;30.52;25.25;;;17.70;99.90;;;;;;5046363;28;20063;-55
2023/09/02 10:41:30;;;;;;;26.80;22.95;;;17.70;99.90;;;;;;5043414;28;20037;-56
2023/09/02 10:43:56;;;;;;;29.63;23.55;;;17.80;99.90;;;;;;5033194;28;20580;-56
2023/09/02 10:46:23;;;;;;;28.63;24.90;;;17.80;99.90;;;;;;5041549;28;20546;-54
2023/09/02 10:48:49;;;;;;;31.67;25.90;;;17.80;99.90;;;;;;5045480;28;20070;-53
2023/09/02 10:51:15;;;;;;;29.75;24.05;;;17.90;99.90;;;;;;5041179;28;20041;-54
2023/09/02 10:53:50;;;;;;;;;;;17.90;99.90;;;;;;5030109;28;20167;-56
2023/09/02 10:56:35;;;;;;;30.02;23.33;;;17.90;99.90;;;;;;5041168;28;20028;-56
2023/09/02 10:59:02;;;;;;;32.42;22.77;;;17.90;99.90;;;;;;5018337;28;20087;-57
2023/09/02 11:01:45;;;;;;;28.85;24.98;;;17.90;99.90;;;;;;5046775;28;20072;-55
2023/09/02 11:04:10;;;;;;;28.75;23.33;;;17.90;99.90;;;;;;5020506;28;20037;-56
2023/09/02 11:06:36;;;;;;;28.73;22.55;;;18.00;99.90;;;;;;5037525;28;20037;-57
2023/09/02 11:09:02;;;;;;;27.90;23.73;;;18.00;99.90;;;;;;5030536;28;20041;-56
2023/09/02 11:12:06;;;;;;;27.35;23.63;;;18.00;99.90;;;;;;5034805;28;20038;-55
2023/09/02 11:14:32;;;;;;;31.90;25.42;;;18.10;99.90;;;;;;5042233;28;20049;-53
2023/09/02 11:17:27;;;;;;;26.13;23.15;;;18.20;99.90;;;;;;5044566;28;20038;-53
2023/09/02 11:20:06;;;;;;;28.80;21.85;;;18.20;99.90;;;;;;5064047;28;20028;-56
2023/09/02 11:22:57;;;;;;;31.27;22.10;;;18.30;99.90;;;;;;5035060;28;20034;-55
2023/09/02 11:25:25;;;;;;;30.88;20.60;;;18.40;99.90;;;;;;5032980;28;20052;-56
2023/09/02 11:27:53;;;;;;;23.63;20.02;;;18.50;99.90;;;;;;5044020;28;20079;-56
2023/09/02 11:30:18;;;;;;;20.80;18.20;;;18.70;99.90;;;;;;5052823;28;20051;-56
2023/09/02 11:32:45;;;;;;;23.63;17.35;;;18.90;99.90;;;;;;5043596;28;20041;-55
2023/09/02 11:35:22;;;;;;;23.05;16.63;;;19.00;99.90;;;;;;5032820;28;20048;-57
2023/09/02 11:37:48;;;;;;;20.58;16.08;;;19.30;99.90;;;;;;5039159;28;20036;-56
2023/09/02 11:40:14;;;;;;;22.98;17.38;;;19.40;99.90;;;;;;5041173;28;20037;-55
2023/09/02 11:43:00;;;;;;;19.90;16.15;;;19.60;99.90;;;;;;5044295;28;20036;-57
2023/09/02 11:45:29;;;;;;;21.92;15.40;;;19.80;99.90;;;;;;5052656;28;20094;-57
2023/09/02 11:47:55;;;;;;;15.70;13.77;;;19.90;99.90;;;;;;5045304;28;20079;-54
2023/09/02 11:50:22;;;;;;;16.67;13.32;;;20.00;99.90;;;;;;5046358;28;20505;-57
2023/09/02 11:52:52;;;;;;;15.10;11.85;;;20.10;99.90;;;;;;5046522;28;20550;-55
2023/09/02 11:55:17;;;;;;;12.55;11.25;;;20.20;99.90;;;;;;5052099;28;20051;-56
2023/09/02 11:57:45;;;;;;;14.82;10.70;;;20.30;99.90;;;;;;5048980;28;20037;-54
2023/09/02 12:00:17;;;;;;;15.07;10.82;;;20.30;99.90;;;;;;5052061;28;20036;-56
2023/09/02 12:02:44;;;;;;;9.82;8.90;;;20.30;99.90;;;;;;5043212;28;20037;-56
2023/09/02 12:05:10;;;;;;;11.60;8.93;;;20.20;99.90;;;;;;5051727;28;20052;-55
2023/09/02 12:07:37;;;;;;;11.43;9.50;;;20.20;99.90;;;;;;5051502;28;20033;-57
2023/09/02 12:10:15;;;;;;;9.55;8.57;;;20.20;99.90;;;;;;5051216;28;20037;-56
2023/09/02 12:12:42;;;;;;;12.73;10.50;;;20.20;99.90;;;;;;5051525;28;20493;-55
2023/09/02 12:15:15;;;;;;;13.00;10.27;;;20.10;99.90;;;;;;5051763;28;20045;-57
2023/09/02 12:17:42;;;;;;;17.65;12.05;;;20.10;99.90;;;;;;5050667;28;20061;-54
2023/09/02 12:20:11;;;;;;;13.65;11.68;;;20.00;99.90;;;;;;5057543;28;20108;-53
2023/09/02 12:22:37;;;;;;;18.15;12.20;;;19.90;99.90;;;;;;5051673;28;20139;-56
2023/09/02 12:25:29;;;;;;;16.67;11.63;;;19.90;99.90;;;;;;5045280;28;20119;-57
2023/09/02 12:28:12;;;;;;;14.93;11.88;;;19.80;99.90;;;;;;5042890;28;20095;-52
2023/09/02 12:30:38;;;;;;;15.98;12.13;;;19.80;99.90;;;;;;5048390;28;20557;-52
2023/09/02 12:33:05;;;;;;;14.10;12.70;;;19.80;99.90;;;;;;5051676;28;20041;-55
2023/09/02 12:35:31;;;;;;;16.08;12.55;;;19.80;99.90;;;;;;5050905;28;20116;-55